Terminal Aerodrome Forecast
Issued by NWS Shreveport, LA

Home | Current Version | Previous Version | Text Only | Print | Product List | Glossary On
Versions: 1 2 3 4 5 6 7 8 9 10 11 12 13 14 15 16 17
000
FTUS44 KSHV 211738
TAFSHV
TAF
KSHV 211738Z 2118/2218 16008KT P6SM SCT040 SCT250
     FM220100 14005KT P6SM FEW250
     FM221000 VRB02KT 6SM BR SCT015
     FM221500 15004KT P6SM SCT040=

USA.gov is the U.S. government's official web portal to all federal, state and local government web resources and services.